createdAt,value
2022-10-20T00:00:49.150Z,0.00
2022-10-20T00:02:49.164Z,0.00
2022-10-20T00:03:49.066Z,0.00
2022-10-20T00:04:49.111Z,0.00
2022-10-20T00:05:49.062Z,0.00
2022-10-20T00:06:49.248Z,0.00
2022-10-20T00:07:49.007Z,0.00
2022-10-20T00:08:49.050Z,0.00
2022-10-20T00:09:49.072Z,0.00
2022-10-20T00:10:49.093Z,0.00
2022-10-20T00:11:48.958Z,0.00
2022-10-20T00:12:48.983Z,0.00
2022-10-20T00:13:48.949Z,0.00
2022-10-20T00:14:48.939Z,0.00
2022-10-20T00:15:48.937Z,0.00
2022-10-20T00:16:48.928Z,0.00
2022-10-20T00:17:48.910Z,0.00
2022-10-20T00:18:48.895Z,0.00
2022-10-20T00:19:48.893Z,0.00
2022-10-20T00:20:48.878Z,0.00
2022-10-20T00:21:48.868Z,0.00
2022-10-20T00:22:48.850Z,0.00
2022-10-20T00:23:48.840Z,0.00
2022-10-20T00:24:48.943Z,0.00
2022-10-20T00:25:48.817Z,0.00
2022-10-20T00:26:48.804Z,0.00
2022-10-20T00:27:59.857Z,0.00
2022-10-20T00:28:49.039Z,0.00
2022-10-20T00:29:48.783Z,0.00
2022-10-20T00:30:58.775Z,0.00
2022-10-20T00:31:48.770Z,0.00
2022-10-20T00:32:48.766Z,0.00
2022-10-20T00:33:48.738Z,0.00
2022-10-20T00:34:48.727Z,0.00
2022-10-20T00:35:48.713Z,0.00
2022-10-20T00:36:51.175Z,0.00
2022-10-20T00:37:48.701Z,0.00
2022-10-20T00:38:48.702Z,0.00
2022-10-20T00:39:48.726Z,0.00
2022-10-20T00:40:48.664Z,0.00
2022-10-20T00:41:48.655Z,0.00
2022-10-20T00:42:48.626Z,0.00
2022-10-20T00:43:48.617Z,0.00
2022-10-20T00:44:48.623Z,0.00
2022-10-20T00:45:48.616Z,0.00
2022-10-20T00:46:48.651Z,0.00
2022-10-20T00:47:48.685Z,0.00
2022-10-20T00:48:48.596Z,0.00
2022-10-20T00:49:48.554Z,0.00
2022-10-20T00:50:48.555Z,0.00
2022-10-20T00:51:48.537Z,0.00
2022-10-20T00:52:48.551Z,0.00
2022-10-20T00:53:48.535Z,0.00
2022-10-20T00:54:48.525Z,0.00
2022-10-20T00:55:48.542Z,0.00
2022-10-20T00:56:48.598Z,0.00
2022-10-20T00:57:48.490Z,0.00
2022-10-20T00:58:48.504Z,0.00
2022-10-20T00:59:48.500Z,0.00
2022-10-20T01:00:48.528Z,0.00
2022-10-20T01:01:48.559Z,0.00
2022-10-20T01:02:48.500Z,0.00
2022-10-20T01:03:48.445Z,0.00
2022-10-20T01:04:48.522Z,0.00
2022-10-20T01:05:48.413Z,0.00
2022-10-20T01:06:48.559Z,0.00
2022-10-20T01:07:48.384Z,0.00
2022-10-20T01:08:49.153Z,0.00
2022-10-20T01:09:48.357Z,0.00
2022-10-20T01:11:45.505Z,0.00
2022-10-20T01:12:45.476Z,0.00
2022-10-20T01:13:45.464Z,0.00
2022-10-20T01:14:45.471Z,0.00
2022-10-20T01:15:45.450Z,0.00
2022-10-20T01:16:45.459Z,0.00
2022-10-20T01:17:45.417Z,0.00
2022-10-20T01:18:45.440Z,0.00
2022-10-20T01:19:45.420Z,0.00
2022-10-20T01:20:45.401Z,0.00
2022-10-20T01:21:45.361Z,0.00
2022-10-20T01:22:45.373Z,0.00
2022-10-20T01:23:45.359Z,0.00
2022-10-20T01:24:45.361Z,0.00
2022-10-20T01:25:45.362Z,0.00
2022-10-20T01:26:45.469Z,0.00
2022-10-20T01:27:45.329Z,0.00
2022-10-20T01:28:45.269Z,0.00
2022-10-20T01:29:45.270Z,0.00
2022-10-20T01:30:45.313Z,0.00
2022-10-20T01:31:45.240Z,0.00
2022-10-20T01:32:45.284Z,0.00
2022-10-20T01:33:45.226Z,0.00
2022-10-20T01:34:47.942Z,0.00
2022-10-20T01:35:46.221Z,0.00
2022-10-20T01:36:45.193Z,0.00
2022-10-20T01:37:49.424Z,0.00
2022-10-20T01:38:45.185Z,0.00
2022-10-20T01:39:45.152Z,0.00
2022-10-20T01:40:45.148Z,0.00
2022-10-20T01:41:45.154Z,0.00
2022-10-20T01:42:45.146Z,0.00
2022-10-20T01:43:45.293Z,0.00
2022-10-20T01:44:45.184Z,0.00
2022-10-20T01:45:45.118Z,0.00
2022-10-20T01:46:45.112Z,0.00
2022-10-20T01:47:45.116Z,0.00
2022-10-20T01:48:45.087Z,0.00
2022-10-20T01:49:45.058Z,0.00
2022-10-20T01:50:45.114Z,0.00
2022-10-20T01:51:45.106Z,0.00
2022-10-20T01:52:45.022Z,0.00
2022-10-20T01:53:45.009Z,0.00
2022-10-20T01:54:45.009Z,0.00
2022-10-20T01:55:45.039Z,0.00
2022-10-20T01:56:45.005Z,0.00
2022-10-20T01:57:44.987Z,0.00
2022-10-20T01:58:44.979Z,0.00
2022-10-20T01:59:44.975Z,0.00
2022-10-20T02:00:44.996Z,0.00
2022-10-20T02:01:44.969Z,0.00
2022-10-20T02:02:44.907Z,0.00
2022-10-20T02:03:44.908Z,0.00
2022-10-20T02:04:44.909Z,0.00
2022-10-20T02:05:44.951Z,0.00
2022-10-20T02:06:44.868Z,0.00
2022-10-20T02:07:44.857Z,0.00
2022-10-20T02:08:44.899Z,0.00
2022-10-20T02:09:44.867Z,0.00
2022-10-20T02:10:44.850Z,0.00
2022-10-20T02:11:44.852Z,0.00
2022-10-20T02:12:44.916Z,0.00
2022-10-20T02:13:44.794Z,0.00
2022-10-20T02:14:44.816Z,0.00
2022-10-20T02:15:44.761Z,0.00
2022-10-20T02:16:44.757Z,0.00
2022-10-20T02:17:44.748Z,0.00
2022-10-20T02:18:44.765Z,0.00
2022-10-20T02:19:44.761Z,0.00
2022-10-20T02:20:44.742Z,0.00
2022-10-20T02:21:44.754Z,0.00
2022-10-20T02:22:44.688Z,0.00
2022-10-20T02:23:44.691Z,0.00
2022-10-20T02:24:44.711Z,0.00
2022-10-20T02:25:44.678Z,0.00
2022-10-20T02:26:44.699Z,0.00
2022-10-20T02:27:44.664Z,0.00
2022-10-20T02:28:45.037Z,0.00
2022-10-20T02:29:44.636Z,0.00
2022-10-20T02:30:44.648Z,0.00
2022-10-20T02:31:44.610Z,0.00
2022-10-20T02:32:44.635Z,0.00
2022-10-20T02:33:44.581Z,0.00
2022-10-20T02:34:44.603Z,0.00
2022-10-20T02:35:44.558Z,0.00
2022-10-20T02:36:44.605Z,0.00
2022-10-20T02:37:44.543Z,0.00
2022-10-20T02:38:44.552Z,0.00
2022-10-20T02:39:44.583Z,0.00
2022-10-20T02:40:44.523Z,0.00
2022-10-20T02:41:44.494Z,0.00
2022-10-20T02:42:44.506Z,0.00
2022-10-20T02:43:44.498Z,0.00
2022-10-20T02:44:44.504Z,0.00
2022-10-20T02:45:44.470Z,0.00
2022-10-20T02:46:44.586Z,0.00
2022-10-20T02:47:44.467Z,0.00
2022-10-20T02:48:44.432Z,0.00
2022-10-20T02:49:44.411Z,0.00
2022-10-20T02:50:44.470Z,0.00
2022-10-20T02:51:44.407Z,0.00
2022-10-20T02:52:44.437Z,0.00
2022-10-20T02:53:44.363Z,0.00
2022-10-20T02:54:44.393Z,0.00
2022-10-20T02:55:44.347Z,0.00
2022-10-20T02:56:44.367Z,0.00
2022-10-20T02:57:44.357Z,0.00
2022-10-20T02:58:44.334Z,0.00
2022-10-20T02:59:44.481Z,0.00
2022-10-20T03:00:44.321Z,0.00
2022-10-20T03:01:44.382Z,0.00
2022-10-20T03:02:44.305Z,0.00
2022-10-20T03:03:44.315Z,0.00
2022-10-20T03:04:44.324Z,0.00
2022-10-20T03:05:44.323Z,0.00
2022-10-20T03:06:44.259Z,0.00
2022-10-20T03:07:44.240Z,0.00
2022-10-20T03:08:44.250Z,0.00
2022-10-20T03:09:44.203Z,0.00
2022-10-20T03:10:44.250Z,0.00
2022-10-20T03:11:44.263Z,0.00
2022-10-20T03:12:44.210Z,0.00
2022-10-20T03:13:44.182Z,0.00
2022-10-20T03:14:44.232Z,0.00
2022-10-20T03:15:44.198Z,0.00
2022-10-20T03:16:44.178Z,0.00
2022-10-20T03:17:44.162Z,0.00
2022-10-20T03:18:44.116Z,0.00
2022-10-20T03:19:44.092Z,0.00
2022-10-20T03:20:44.103Z,0.00
2022-10-20T03:21:44.109Z,0.00
2022-10-20T03:22:44.065Z,0.00
2022-10-20T03:23:44.051Z,0.00
2022-10-20T03:24:44.090Z,0.00
2022-10-20T03:25:44.054Z,0.00
2022-10-20T03:26:44.012Z,0.00
2022-10-20T03:27:44.022Z,0.00
2022-10-20T03:28:44.018Z,0.00
2022-10-20T03:29:44.033Z,0.00
2022-10-20T03:30:44.034Z,0.00
2022-10-20T03:31:44.069Z,0.00
2022-10-20T03:32:44.027Z,0.00
2022-10-20T03:33:43.987Z,0.00
2022-10-20T03:34:44.003Z,0.00
2022-10-20T03:35:43.940Z,0.00
2022-10-20T03:36:43.941Z,0.00
2022-10-20T03:37:43.902Z,0.00
2022-10-20T03:38:43.915Z,0.00
2022-10-20T03:39:43.899Z,0.00
2022-10-20T03:40:43.953Z,0.00
2022-10-20T03:41:43.893Z,0.00
2022-10-20T03:42:43.893Z,0.00
2022-10-20T03:43:43.839Z,0.00
2022-10-20T03:44:43.880Z,0.00
2022-10-20T03:45:43.889Z,0.00
2022-10-20T03:46:43.863Z,0.00
2022-10-20T03:47:43.849Z,0.00
2022-10-20T03:48:43.834Z,0.00
2022-10-20T03:49:43.807Z,0.00
2022-10-20T03:50:43.862Z,0.00
2022-10-20T03:51:43.848Z,0.00
2022-10-20T03:52:43.765Z,0.00
2022-10-20T03:53:43.825Z,0.00
2022-10-20T03:54:43.745Z,0.00
2022-10-20T03:55:43.733Z,0.00
2022-10-20T03:56:43.749Z,0.00
2022-10-20T03:57:43.770Z,0.00
2022-10-20T03:58:43.716Z,0.00
2022-10-20T03:59:43.715Z,0.00
2022-10-20T04:00:43.722Z,0.00
2022-10-20T04:01:43.738Z,0.00
2022-10-20T04:02:43.660Z,0.00
2022-10-20T04:03:43.647Z,0.00
2022-10-20T04:04:43.649Z,0.00
2022-10-20T04:05:43.683Z,0.00
2022-10-20T04:06:43.639Z,0.00
2022-10-20T04:07:43.681Z,0.00
2022-10-20T04:08:43.674Z,0.00
2022-10-20T04:09:43.650Z,0.00
2022-10-20T04:10:43.578Z,0.00
2022-10-20T04:11:43.656Z,0.00
2022-10-20T04:12:43.597Z,0.00
2022-10-20T04:13:43.552Z,0.00
2022-10-20T04:14:43.544Z,0.00
2022-10-20T04:15:43.545Z,0.00
2022-10-20T04:16:43.546Z,0.00
2022-10-20T04:17:43.540Z,0.00
2022-10-20T04:18:43.498Z,0.00
2022-10-20T04:19:44.361Z,0.00
2022-10-20T04:20:44.587Z,0.00
2022-10-20T04:21:43.461Z,0.00
2022-10-20T04:22:43.467Z,0.00
2022-10-20T04:23:43.471Z,0.00
2022-10-20T04:24:43.434Z,0.00
2022-10-20T04:25:43.410Z,0.00
2022-10-20T04:26:43.451Z,0.00
2022-10-20T04:27:43.460Z,0.00
2022-10-20T04:28:43.415Z,0.00
2022-10-20T04:29:43.393Z,0.00
2022-10-20T04:30:43.382Z,0.00
2022-10-20T04:31:46.710Z,0.00
2022-10-20T04:32:44.346Z,0.00
2022-10-20T04:33:43.385Z,0.00
2022-10-20T04:34:43.387Z,0.00
2022-10-20T04:35:43.390Z,0.00
2022-10-20T04:36:43.297Z,0.00
2022-10-20T04:37:43.340Z,0.00
2022-10-20T04:38:43.337Z,0.00
2022-10-20T04:39:43.285Z,0.00
2022-10-20T04:40:43.282Z,0.00
2022-10-20T04:41:43.299Z,0.00
2022-10-20T04:42:43.264Z,0.00
2022-10-20T04:43:43.247Z,0.00
2022-10-20T04:44:43.226Z,0.00
2022-10-20T04:45:43.223Z,0.00
2022-10-20T04:46:43.254Z,0.00
2022-10-20T04:47:43.185Z,0.00
2022-10-20T04:48:43.186Z,0.00
2022-10-20T04:49:43.182Z,0.00
2022-10-20T04:50:43.188Z,0.00
2022-10-20T04:51:43.143Z,0.00
2022-10-20T04:52:43.161Z,0.00
2022-10-20T04:53:43.288Z,0.00
2022-10-20T04:54:43.138Z,0.00
2022-10-20T04:55:43.134Z,0.00
2022-10-20T04:56:43.130Z,0.00
2022-10-20T04:57:43.085Z,0.00
2022-10-20T04:58:43.113Z,0.00
2022-10-20T04:59:43.074Z,0.00
2022-10-20T05:00:43.065Z,0.00
2022-10-20T05:01:43.125Z,0.00
2022-10-20T05:02:43.137Z,0.00
2022-10-20T05:03:43.141Z,0.00
2022-10-20T05:04:43.104Z,0.00
2022-10-20T05:05:43.085Z,0.00
2022-10-20T05:06:43.010Z,0.00
2022-10-20T05:07:43.002Z,0.00
2022-10-20T05:08:43.028Z,0.00
2022-10-20T05:09:43.014Z,0.00
2022-10-20T05:10:43.077Z,0.00
2022-10-20T05:11:43.093Z,0.00
2022-10-20T05:12:42.944Z,0.00
2022-10-20T05:13:42.969Z,0.00
2022-10-20T05:14:43.307Z,0.00
2022-10-20T05:15:43.017Z,0.00
2022-10-20T05:16:42.892Z,0.00
2022-10-20T05:17:42.919Z,0.00
2022-10-20T05:18:43.092Z,0.00
2022-10-20T05:19:42.995Z,0.00
2022-10-20T05:21:07.431Z,0.00
2022-10-20T05:21:43.975Z,0.00
2022-10-20T05:22:42.934Z,0.00
2022-10-20T05:23:42.965Z,0.00
2022-10-20T05:25:38.289Z,0.00
2022-10-20T05:26:38.231Z,0.00
2022-10-20T05:27:38.233Z,0.00
2022-10-20T05:28:38.234Z,0.00
2022-10-20T05:29:38.210Z,0.00
2022-10-20T05:30:38.244Z,0.00
2022-10-20T05:31:38.198Z,0.00
2022-10-20T05:32:38.464Z,0.00
2022-10-20T05:33:38.553Z,0.00
2022-10-20T05:34:38.171Z,0.00
2022-10-20T05:35:38.152Z,0.00
2022-10-20T05:36:38.405Z,0.00
2022-10-20T05:37:38.129Z,0.00
2022-10-20T05:38:38.124Z,0.00
2022-10-20T05:39:38.145Z,0.00
2022-10-20T05:40:38.097Z,0.00
2022-10-20T05:41:39.156Z,0.00
2022-10-20T05:42:38.526Z,0.00
2022-10-20T05:43:38.071Z,0.00
2022-10-20T05:44:38.063Z,0.00
2022-10-20T05:45:38.055Z,0.00
2022-10-20T05:46:38.029Z,5.62
2022-10-20T05:47:38.031Z,5.62
2022-10-20T05:48:42.826Z,5.62
2022-10-20T05:49:39.004Z,5.62
2022-10-20T05:50:38.011Z,5.62
2022-10-20T05:51:38.000Z,5.62
2022-10-20T05:52:38.471Z,5.62
2022-10-20T05:53:37.962Z,5.62
2022-10-20T05:54:37.949Z,5.62
2022-10-20T05:55:37.938Z,5.62
2022-10-20T05:56:37.922Z,5.62
2022-10-20T05:57:37.916Z,5.62
2022-10-20T05:58:37.897Z,5.62
2022-10-20T05:59:37.893Z,11.25
2022-10-20T06:00:37.885Z,11.25
2022-10-20T06:01:37.882Z,11.25
2022-10-20T06:02:38.362Z,11.25
2022-10-20T06:03:37.847Z,11.25
2022-10-20T06:04:37.859Z,11.25
2022-10-20T06:05:37.830Z,16.88
2022-10-20T06:06:37.811Z,16.88
2022-10-20T06:07:37.808Z,16.88
2022-10-20T06:08:37.820Z,22.50
2022-10-20T06:09:37.795Z,22.50
2022-10-20T06:10:37.792Z,22.50
2022-10-20T06:11:39.511Z,22.50
2022-10-20T06:12:38.296Z,28.12
2022-10-20T06:13:37.745Z,28.12
2022-10-20T06:14:37.730Z,28.12
2022-10-20T06:15:37.742Z,28.12
2022-10-20T06:16:37.755Z,33.75
2022-10-20T06:17:37.703Z,33.75
2022-10-20T06:18:37.700Z,33.75
2022-10-20T06:19:37.681Z,39.38
2022-10-20T06:20:37.662Z,39.38
2022-10-20T06:21:37.735Z,39.38
2022-10-20T06:22:37.941Z,45.00
2022-10-20T06:23:37.646Z,45.00
2022-10-20T06:24:37.626Z,45.00
2022-10-20T06:25:37.628Z,50.62
2022-10-20T06:26:37.615Z,50.62
2022-10-20T06:27:37.605Z,56.25
2022-10-20T06:28:37.586Z,56.25
2022-10-20T06:29:37.587Z,56.25
2022-10-20T06:30:37.578Z,61.88
2022-10-20T06:31:37.563Z,61.88
2022-10-20T06:32:37.922Z,67.50
2022-10-20T06:33:37.546Z,67.50
2022-10-20T06:34:37.523Z,73.12
2022-10-20T06:35:37.659Z,73.12
2022-10-20T06:36:37.560Z,78.75
2022-10-20T06:37:37.503Z,78.75
2022-10-20T06:38:37.498Z,84.38
2022-10-20T06:39:37.478Z,84.38
2022-10-20T06:40:37.458Z,90.00
2022-10-20T06:41:38.014Z,90.00
2022-10-20T06:42:37.808Z,90.00
2022-10-20T06:43:37.442Z,95.62
2022-10-20T06:44:37.428Z,95.62
2022-10-20T06:45:37.415Z,95.62
2022-10-20T06:46:37.412Z,101.25
2022-10-20T06:47:37.753Z,101.25
2022-10-20T06:48:37.446Z,101.25
2022-10-20T06:49:37.381Z,106.88
2022-10-20T06:50:38.821Z,106.88
2022-10-20T06:51:37.346Z,106.88
2022-10-20T06:52:38.085Z,112.50
2022-10-20T06:53:38.361Z,112.50
2022-10-20T06:54:37.376Z,118.12
2022-10-20T06:55:37.295Z,118.12
2022-10-20T06:56:37.293Z,123.75
2022-10-20T06:57:37.292Z,123.75
2022-10-20T06:58:37.299Z,123.75
2022-10-20T06:59:37.255Z,129.38
2022-10-20T07:00:37.251Z,129.38
2022-10-20T07:01:37.571Z,135.00
2022-10-20T07:02:37.519Z,135.00
2022-10-20T07:03:37.215Z,140.62
2022-10-20T07:04:37.210Z,140.62
2022-10-20T07:05:37.198Z,140.62
2022-10-20T07:06:37.222Z,146.25
2022-10-20T07:07:37.232Z,146.25
2022-10-20T07:08:37.204Z,151.88
2022-10-20T07:09:37.164Z,151.88
2022-10-20T07:10:37.374Z,151.88
2022-10-20T07:11:37.196Z,157.50
2022-10-20T07:12:37.715Z,157.50
2022-10-20T07:13:37.108Z,157.50
2022-10-20T07:14:37.107Z,157.50
2022-10-20T07:15:37.162Z,163.12
2022-10-20T07:16:37.093Z,163.12
2022-10-20T07:17:37.065Z,163.12
2022-10-20T07:18:37.084Z,168.75
2022-10-20T07:19:37.041Z,174.38
2022-10-20T07:20:37.012Z,174.38
2022-10-20T07:21:39.125Z,174.38
2022-10-20T07:22:37.176Z,174.38
2022-10-20T07:23:37.284Z,180.00
2022-10-20T07:24:37.038Z,180.00
2022-10-20T07:25:36.983Z,185.62
2022-10-20T07:26:36.978Z,191.25
2022-10-20T07:27:36.956Z,191.25
2022-10-20T07:28:36.938Z,196.88
2022-10-20T07:29:36.992Z,196.88
2022-10-20T07:30:36.914Z,196.88
2022-10-20T07:31:36.917Z,202.50
2022-10-20T07:32:37.274Z,196.88
2022-10-20T07:33:36.883Z,191.25
2022-10-20T07:34:36.874Z,196.88
2022-10-20T07:35:36.874Z,196.88
2022-10-20T07:36:36.857Z,202.50
2022-10-20T07:37:37.616Z,202.50
2022-10-20T07:38:36.838Z,213.75
2022-10-20T07:39:36.824Z,213.75
2022-10-20T07:40:36.801Z,213.75
2022-10-20T07:41:36.967Z,219.38
2022-10-20T07:42:37.082Z,219.38
2022-10-20T07:43:36.785Z,225.00
2022-10-20T07:44:36.765Z,230.62
2022-10-20T07:45:36.755Z,230.62
2022-10-20T07:46:36.737Z,236.25
2022-10-20T07:47:38.369Z,236.25
2022-10-20T07:48:36.795Z,230.62
2022-10-20T07:49:44.845Z,230.62
2022-10-20T07:50:37.835Z,230.62
2022-10-20T07:51:36.704Z,230.62
2022-10-20T07:52:36.873Z,230.62
2022-10-20T07:53:36.686Z,230.62
2022-10-20T07:54:36.670Z,230.62
2022-10-20T07:55:38.918Z,236.25
2022-10-20T07:56:36.637Z,236.25
2022-10-20T07:57:36.630Z,236.25
2022-10-20T07:58:36.609Z,236.25
2022-10-20T07:59:36.612Z,241.88
2022-10-20T08:00:36.662Z,241.88
2022-10-20T08:01:36.589Z,241.88
2022-10-20T08:02:36.711Z,241.88
2022-10-20T08:03:36.565Z,241.88
2022-10-20T08:04:36.556Z,241.88
2022-10-20T08:05:36.553Z,241.88
2022-10-20T08:06:36.548Z,241.88
2022-10-20T08:07:36.525Z,247.50
2022-10-20T08:08:37.169Z,247.50
2022-10-20T08:09:36.541Z,247.50
2022-10-20T08:10:36.517Z,253.12
2022-10-20T08:11:36.490Z,253.12
2022-10-20T08:12:36.785Z,258.75
2022-10-20T08:13:36.456Z,258.75
2022-10-20T08:14:36.512Z,264.38
2022-10-20T08:15:37.489Z,264.38
2022-10-20T08:16:38.504Z,264.38
2022-10-20T08:17:57.433Z,270.00
2022-10-20T08:18:38.824Z,270.00
2022-10-20T08:19:38.952Z,270.00
2022-10-20T08:20:37.284Z,275.62
2022-10-20T08:21:36.371Z,281.25
2022-10-20T08:22:36.620Z,281.25
2022-10-20T08:23:36.348Z,286.88
2022-10-20T08:24:36.339Z,292.50
2022-10-20T08:25:36.334Z,298.12
2022-10-20T08:26:36.317Z,298.12
2022-10-20T08:27:36.302Z,303.75
2022-10-20T08:28:36.289Z,309.38
2022-10-20T08:29:36.275Z,309.38
2022-10-20T08:30:36.270Z,315.00
2022-10-20T08:31:36.248Z,320.62
2022-10-20T08:32:36.563Z,326.25
2022-10-20T08:33:36.239Z,326.25
2022-10-20T08:34:36.210Z,326.25
2022-10-20T08:35:36.544Z,331.88
2022-10-20T08:36:36.228Z,331.88
2022-10-20T08:37:36.493Z,337.50
2022-10-20T08:38:36.189Z,343.12
2022-10-20T08:39:36.358Z,348.75
2022-10-20T08:40:36.192Z,348.75
2022-10-20T08:41:55.199Z,354.38
2022-10-20T08:42:37.165Z,354.38
2022-10-20T08:43:36.114Z,360.00
2022-10-20T08:44:36.115Z,365.62
2022-10-20T08:45:38.479Z,371.25
2022-10-20T08:46:36.082Z,376.88
2022-10-20T08:47:36.571Z,382.50
2022-10-20T08:48:36.059Z,382.50
2022-10-20T08:49:36.111Z,388.12
2022-10-20T08:50:36.033Z,393.75
2022-10-20T08:51:36.816Z,399.38
2022-10-20T08:52:36.014Z,405.00
2022-10-20T08:53:36.041Z,416.25
2022-10-20T08:54:36.093Z,416.25
2022-10-20T08:55:35.973Z,421.88
2022-10-20T08:56:35.989Z,427.50
2022-10-20T08:57:36.629Z,433.12
2022-10-20T08:58:35.957Z,438.75
2022-10-20T08:59:39.170Z,444.38
2022-10-20T09:00:35.923Z,455.62
2022-10-20T09:01:35.981Z,450.00
2022-10-20T09:02:35.915Z,455.62
2022-10-20T09:03:35.945Z,461.25
2022-10-20T09:04:35.913Z,461.25
2022-10-20T09:05:35.884Z,466.88
2022-10-20T09:06:35.870Z,466.88
2022-10-20T09:07:36.280Z,472.50
2022-10-20T09:08:35.879Z,472.50
2022-10-20T09:09:35.876Z,478.12
2022-10-20T09:10:36.041Z,483.75
2022-10-20T09:11:35.938Z,483.75
2022-10-20T09:12:35.804Z,489.38
2022-10-20T09:13:35.865Z,489.38
2022-10-20T09:14:35.784Z,495.00
2022-10-20T09:15:36.143Z,495.00
2022-10-20T09:16:42.320Z,500.62
2022-10-20T09:17:37.083Z,500.62
2022-10-20T09:18:35.750Z,506.25
2022-10-20T09:19:35.732Z,506.25
2022-10-20T09:20:35.736Z,511.88
2022-10-20T09:21:35.702Z,511.88
2022-10-20T09:22:36.299Z,517.50
2022-10-20T09:23:41.014Z,523.12
2022-10-20T09:24:36.688Z,523.12
2022-10-20T09:25:35.688Z,528.75
2022-10-20T09:26:57.509Z,540.00
2022-10-20T09:27:36.987Z,545.62
2022-10-20T09:28:49.193Z,556.88
2022-10-20T09:29:36.640Z,551.25
2022-10-20T09:30:35.681Z,556.88
2022-10-20T09:31:35.616Z,568.12
2022-10-20T09:32:50.843Z,573.75
2022-10-20T09:33:36.590Z,579.38
2022-10-20T09:34:35.570Z,579.38
2022-10-20T09:35:35.563Z,579.38
2022-10-20T09:36:35.550Z,585.00
2022-10-20T09:37:35.545Z,590.62
2022-10-20T09:38:35.524Z,596.25
2022-10-20T09:39:38.249Z,596.25
2022-10-20T09:40:35.500Z,596.25
2022-10-20T09:41:36.026Z,585.00
2022-10-20T09:42:35.774Z,579.38
2022-10-20T09:43:35.477Z,579.38
2022-10-20T09:44:35.437Z,585.00
2022-10-20T09:45:35.720Z,590.62
2022-10-20T09:46:35.424Z,596.25
2022-10-20T09:47:35.489Z,601.88
2022-10-20T09:48:35.396Z,613.12
2022-10-20T09:49:35.539Z,618.75
2022-10-20T09:50:35.399Z,635.62
2022-10-20T09:51:35.381Z,646.88
2022-10-20T09:52:35.741Z,646.88
2022-10-20T09:53:35.352Z,652.50
2022-10-20T09:54:35.344Z,675.00
2022-10-20T09:55:35.777Z,663.75
2022-10-20T09:56:35.326Z,658.12
2022-10-20T09:57:35.311Z,675.00
2022-10-20T09:58:35.295Z,669.38
2022-10-20T09:59:35.475Z,663.75
2022-10-20T10:00:37.864Z,669.38
2022-10-20T10:01:35.857Z,697.50
2022-10-20T10:02:35.669Z,708.75
2022-10-20T10:03:35.229Z,703.12
2022-10-20T10:04:35.269Z,720.00
2022-10-20T10:05:35.210Z,759.38
2022-10-20T10:06:35.207Z,776.25
2022-10-20T10:07:35.218Z,810.00
2022-10-20T10:08:35.253Z,798.75
2022-10-20T10:09:35.325Z,753.75
2022-10-20T10:10:35.173Z,697.50
2022-10-20T10:11:35.169Z,697.50
2022-10-20T10:12:35.678Z,691.88
2022-10-20T10:13:35.132Z,725.62
2022-10-20T10:14:35.220Z,742.50
2022-10-20T10:15:35.124Z,911.25
2022-10-20T10:16:35.099Z,916.88
2022-10-20T10:17:35.549Z,1113.75
2022-10-20T10:18:35.084Z,1147.50
2022-10-20T10:19:35.081Z,1209.38
2022-10-20T10:20:35.076Z,1198.12
2022-10-20T10:21:35.039Z,1125.00
2022-10-20T10:22:35.293Z,1130.62
2022-10-20T10:23:35.030Z,1130.62
2022-10-20T10:24:35.006Z,1068.75
2022-10-20T10:25:35.013Z,1051.88
2022-10-20T10:26:34.994Z,1265.62
2022-10-20T10:27:34.994Z,1305.00
2022-10-20T10:28:34.987Z,1760.62
2022-10-20T10:29:34.978Z,1726.88
2022-10-20T10:30:34.948Z,1805.62
2022-10-20T10:31:34.933Z,1558.12
2022-10-20T10:32:35.236Z,1389.38
2022-10-20T10:33:34.916Z,1546.88
2022-10-20T10:34:34.899Z,1968.75
2022-10-20T10:35:34.883Z,1743.75
2022-10-20T10:36:34.885Z,1648.12
2022-10-20T10:37:35.291Z,1800.00
2022-10-20T10:38:34.847Z,2430.00
2022-10-20T10:39:34.863Z,2508.75
2022-10-20T10:40:34.844Z,2621.25
2022-10-20T10:41:35.011Z,2143.12
2022-10-20T10:42:35.268Z,1456.88
2022-10-20T10:43:35.290Z,1276.88
2022-10-20T10:44:34.812Z,1372.50
2022-10-20T10:45:34.886Z,2385.00
2022-10-20T10:46:34.945Z,2418.75
2022-10-20T10:47:37.821Z,2165.62
2022-10-20T10:48:35.752Z,2660.62
2022-10-20T10:49:34.896Z,2255.62
2022-10-20T10:50:34.715Z,3178.12
2022-10-20T10:51:34.739Z,2160.00
2022-10-20T10:52:34.713Z,1440.00
2022-10-20T10:53:34.687Z,2053.12
2022-10-20T10:54:34.684Z,3335.62
2022-10-20T10:55:48.250Z,3189.38
2022-10-20T10:56:35.661Z,1985.62
2022-10-20T10:57:34.943Z,2323.12
2022-10-20T10:58:34.639Z,2683.12
2022-10-20T10:59:34.630Z,2205.00
2022-10-20T11:00:34.654Z,2300.62
2022-10-20T11:01:34.619Z,2475.00
2022-10-20T11:02:34.935Z,1766.25
2022-10-20T11:03:37.649Z,1597.50
2022-10-20T11:04:35.582Z,1693.12
2022-10-20T11:05:34.566Z,1406.25
2022-10-20T11:06:34.564Z,1800.00
2022-10-20T11:07:34.936Z,2070.00
2022-10-20T11:08:34.567Z,2340.00
2022-10-20T11:09:34.591Z,2064.38
2022-10-20T11:10:34.513Z,888.75
2022-10-20T11:11:34.498Z,742.50
2022-10-20T11:12:34.480Z,691.88
2022-10-20T11:13:34.485Z,703.12
2022-10-20T11:14:34.613Z,686.25
2022-10-20T11:15:34.448Z,680.62
2022-10-20T11:16:34.443Z,686.25
2022-10-20T11:17:34.714Z,691.88
2022-10-20T11:18:34.425Z,697.50
2022-10-20T11:19:34.431Z,714.38
2022-10-20T11:20:34.419Z,736.88
2022-10-20T11:21:34.393Z,776.25
2022-10-20T11:22:34.380Z,843.75
2022-10-20T11:24:34.343Z,860.62
2022-10-20T11:25:34.338Z,883.12
2022-10-20T11:26:34.324Z,905.62
2022-10-20T11:27:34.688Z,1091.25
2022-10-20T11:28:34.367Z,1378.12
2022-10-20T11:29:34.309Z,1563.75
2022-10-20T11:30:34.293Z,1063.12
2022-10-20T11:31:34.275Z,804.38
2022-10-20T11:33:36.850Z,714.38
2022-10-20T11:34:35.253Z,697.50
2022-10-20T11:35:34.232Z,691.88
2022-10-20T11:36:34.276Z,675.00
2022-10-20T11:37:34.421Z,680.62
2022-10-20T11:38:34.197Z,669.38
2022-10-20T11:39:34.188Z,658.12
2022-10-20T11:40:34.181Z,658.12
2022-10-20T11:41:34.201Z,669.38
2022-10-20T11:42:34.427Z,686.25
2022-10-20T11:43:34.144Z,686.25
2022-10-20T11:44:34.181Z,680.62
2022-10-20T11:45:34.307Z,675.00
2022-10-20T11:46:34.126Z,669.38
2022-10-20T11:47:34.116Z,663.75
2022-10-20T11:48:34.085Z,669.38
2022-10-20T11:49:34.076Z,669.38
2022-10-20T11:50:34.110Z,669.38
2022-10-20T11:51:34.069Z,669.38
2022-10-20T11:52:34.366Z,675.00
2022-10-20T11:53:34.051Z,675.00
2022-10-20T11:54:34.167Z,686.25
2022-10-20T11:55:34.028Z,686.25
2022-10-20T11:56:34.001Z,697.50
2022-10-20T11:57:33.991Z,742.50
2022-10-20T11:58:34.085Z,714.38
2022-10-20T11:59:33.979Z,686.25
2022-10-20T12:00:33.971Z,669.38
2022-10-20T12:01:33.975Z,658.12
2022-10-20T12:02:34.174Z,646.88
2022-10-20T12:03:33.926Z,641.25
2022-10-20T12:04:33.947Z,646.88
2022-10-20T12:05:33.917Z,663.75
2022-10-20T12:06:33.960Z,686.25
2022-10-20T12:07:33.890Z,742.50
2022-10-20T12:08:33.960Z,877.50
2022-10-20T12:09:33.873Z,995.62
2022-10-20T12:10:33.917Z,1074.38
2022-10-20T12:11:33.835Z,1220.62
2022-10-20T12:12:34.182Z,1614.38
2022-10-20T12:13:33.821Z,1642.50
2022-10-20T12:14:33.813Z,1125.00
2022-10-20T12:15:34.121Z,1125.00
2022-10-20T12:16:33.925Z,1068.75
2022-10-20T12:17:34.265Z,888.75
2022-10-20T12:18:33.762Z,832.50
2022-10-20T12:19:33.749Z,793.12
2022-10-20T12:20:34.722Z,759.38
2022-10-20T12:21:34.476Z,742.50
2022-10-20T12:22:34.007Z,742.50
2022-10-20T12:23:33.718Z,703.12
2022-10-20T12:24:33.693Z,691.88
2022-10-20T12:25:33.684Z,810.00
2022-10-20T12:26:33.688Z,652.50
2022-10-20T12:27:33.712Z,528.75
2022-10-20T12:28:33.827Z,483.75
2022-10-20T12:29:33.647Z,455.62
2022-10-20T12:30:34.114Z,444.38
2022-10-20T12:31:33.626Z,438.75
2022-10-20T12:32:33.885Z,405.00
2022-10-20T12:33:33.739Z,376.88
2022-10-20T12:34:33.574Z,354.38
2022-10-20T12:35:33.580Z,348.75
2022-10-20T12:36:33.571Z,337.50
2022-10-20T12:37:33.762Z,331.88
2022-10-20T12:38:33.581Z,320.62
2022-10-20T12:39:33.539Z,315.00
2022-10-20T12:40:33.500Z,309.38
2022-10-20T12:41:33.527Z,309.38
2022-10-20T12:42:33.487Z,303.75
2022-10-20T12:43:33.504Z,309.38
2022-10-20T12:44:33.497Z,309.38
2022-10-20T12:45:33.471Z,315.00
2022-10-20T12:46:33.473Z,315.00
2022-10-20T12:47:33.786Z,320.62
2022-10-20T12:48:33.426Z,331.88
2022-10-20T12:49:33.494Z,331.88
2022-10-20T12:50:33.398Z,292.50
2022-10-20T12:51:33.394Z,281.25
2022-10-20T12:52:33.375Z,264.38
2022-10-20T12:53:33.364Z,253.12
2022-10-20T12:54:33.373Z,241.88
2022-10-20T12:55:35.050Z,230.62